Time;durP1;ratioP1;P1;durP2;ratioP2;P2;SDS_P1;SDS_P2;PMS_P1;PMS_P2;Temp;Humidity;BMP_temperature;BMP_pressure;BME280_temperature;BME280_humidity;BME280_pressure;Samples;Min_cycle;Max_cycle;Signal;HPM_P1;HPM_P2
2022/01/28 00:01:05;;;;;;;78.80;39.20;;;;;;;;;;5106985;28;20197;-83
2022/01/28 00:03:33;;;;;;;84.40;39.03;;;;;;;;;;5131959;28;20253;-83
2022/01/28 00:06:01;;;;;;;78.43;38.50;;;;;;;;;;5120758;28;20210;-83
2022/01/28 00:08:30;;;;;;;72.83;37.50;;;;;;;;;;5111222;28;20254;-83
2022/01/28 00:10:57;;;;;;;79.07;39.40;;;;;;;;;;5111349;28;20300;-83
2022/01/28 00:13:32;;;;;;;78.73;39.03;;;;;;;;;;5120189;27;20684;-83
2022/01/28 00:38:10;;;;;;;74.70;37.30;;;;;;;;;;5135216;27;20220;-82
2022/01/28 00:40:38;;;;;;;71.83;38.53;;;;;;;;;;5110945;27;20200;-82
2022/01/28 00:43:06;;;;;;;78.47;38.70;;;;;;;;;;5127308;27;20240;-82
2022/01/28 00:45:33;;;;;;;79.50;38.73;;;;;;;;;;5113551;27;20208;-82
2022/01/28 00:48:00;;;;;;;75.97;38.13;;;;;;;;;;5130445;27;20221;-83
2022/01/28 00:50:28;;;;;;;75.87;37.30;;;;;;;;;;5129165;27;20670;-83
2022/01/28 00:52:55;;;;;;;78.20;38.57;;;;;;;;;;5113898;28;20278;-83
2022/01/28 00:55:22;;;;;;;73.80;36.90;;;;;;;;;;5100087;28;20254;-83
2022/01/28 00:57:51;;;;;;;78.70;37.53;;;;;;;;;;5099154;28;20277;-83
2022/01/28 01:00:18;;;;;;;79.20;37.30;;;;;;;;;;5105304;28;20295;-83
2022/01/28 01:02:46;;;;;;;69.60;35.83;;;;;;;;;;5108066;28;20344;-83
2022/01/28 01:05:13;;;;;;;76.50;37.33;;;;;;;;;;5113872;28;20847;-83
2022/01/28 01:07:41;;;;;;;76.50;37.50;;;;;;;;;;5112399;28;20308;-83
2022/01/28 01:10:09;;;;;;;78.17;37.13;;;;;;;;;;5111118;28;20243;-83
2022/01/28 01:12:41;;;;;;;78.40;36.43;;;;;;;;;;5113704;28;20197;-82
2022/01/28 01:15:11;;;;;;;72.57;36.33;;;;;;;;;;5113952;28;20266;-83
2022/01/28 01:17:43;;;;;;;75.67;36.40;;;;;;;;;;5107239;28;20237;-83
2022/01/28 01:20:20;;;;;;;80.63;38.10;;;;;;;;;;5105659;28;20204;-83
2022/01/28 01:22:55;;;;;;;83.77;39.43;;;;;;;;;;5105450;28;20190;-83
2022/01/28 01:25:27;;;;;;;83.53;38.37;;;;;;;;;;5113259;28;20200;-83
2022/01/28 01:27:57;;;;;;;75.70;37.20;;;;;;;;;;5113815;28;20639;-83
2022/01/28 01:30:29;;;;;;;72.67;36.97;;;;;;;;;;5103772;28;20202;-83
2022/01/28 01:32:56;;;;;;;72.50;36.43;;;;;;;;;;5108680;28;20562;-83
2022/01/28 01:35:23;;;;;;;70.83;36.17;;;;;;;;;;5096570;28;20266;-83
2022/01/28 01:37:50;;;;;;;68.37;34.60;;;;;;;;;;5098168;28;20303;-83
2022/01/28 01:40:26;;;;;;;67.83;34.40;;;;;;;;;;5095014;28;20291;-83
2022/01/28 01:43:05;;;;;;;64.50;35.00;;;;;;;;;;5098630;28;20268;-83
2022/01/28 01:53:48;;;;;;;68.93;35.07;;;;;;;;;;5118211;27;20607;-83
2022/01/28 01:56:15;;;;;;;74.37;36.67;;;;;;;;;;5134001;27;20252;-83
2022/01/28 01:58:43;;;;;;;71.40;36.83;;;;;;;;;;5133671;27;20278;-83
2022/01/28 02:01:12;;;;;;;68.80;34.53;;;;;;;;;;5133905;27;20229;-83
2022/01/28 02:03:39;;;;;;;74.93;37.03;;;;;;;;;;5126097;27;20203;-83
2022/01/28 02:06:07;;;;;;;77.23;35.53;;;;;;;;;;5126357;27;20281;-83
2022/01/28 02:08:35;;;;;;;72.63;35.83;;;;;;;;;;5131546;27;20304;-83
2022/01/28 02:11:03;;;;;;;68.53;36.13;;;;;;;;;;5133125;27;20236;-83
2022/01/28 02:13:31;;;;;;;70.73;36.80;;;;;;;;;;5124638;27;20937;-83
2022/01/28 02:16:00;;;;;;;68.57;35.53;;;;;;;;;;5112725;28;20223;-83
2022/01/28 02:18:28;;;;;;;75.63;36.07;;;;;;;;;;5118244;27;20190;-83
2022/01/28 02:21:04;;;;;;;83.17;37.67;;;;;;;;;;5112450;28;20233;-83
2022/01/28 02:23:31;;;;;;;76.50;37.50;;;;;;;;;;5127371;27;20197;-83
2022/01/28 02:26:00;;;;;;;73.17;37.70;;;;;;;;;;5133097;27;20316;-83
2022/01/28 02:28:29;;;;;;;75.83;36.83;;;;;;;;;;5133150;27;20582;-83
2022/01/28 02:30:57;;;;;;;75.50;37.63;;;;;;;;;;5132505;27;20202;-83
2022/01/28 02:33:25;;;;;;;81.63;37.53;;;;;;;;;;5133043;27;20254;-83
2022/01/28 02:35:53;;;;;;;86.67;38.27;;;;;;;;;;5123792;27;20735;-83
2022/01/28 02:38:24;;;;;;;80.60;38.60;;;;;;;;;;5119476;27;20250;-83
2022/01/28 02:40:55;;;;;;;81.10;37.70;;;;;;;;;;5115835;27;20198;-83
2022/01/28 02:43:32;;;;;;;106.70;38.33;;;;;;;;;;5112134;28;20344;-83
2022/01/28 02:46:07;;;;;;;131.43;38.13;;;;;;;;;;5113438;27;20197;-83
2022/01/28 02:48:37;;;;;;;129.00;38.57;;;;;;;;;;5115871;27;20732;-83
2022/01/28 02:51:10;;;;;;;167.17;40.23;;;;;;;;;;5112249;27;20197;-83
2022/01/28 02:53:46;;;;;;;122.90;40.83;;;;;;;;;;5107639;28;20779;-82
2022/01/28 02:56:17;;;;;;;345.43;43.83;;;;;;;;;;5091547;28;20198;-83
2022/01/28 02:58:46;;;;;;;132.40;40.33;;;;;;;;;;5101938;28;20621;-83
2022/01/28 03:01:15;;;;;;;96.20;39.97;;;;;;;;;;5091306;28;20245;-83
2022/01/28 03:03:42;;;;;;;89.37;39.77;;;;;;;;;;5091896;28;20590;-83
2022/01/28 03:06:10;;;;;;;92.00;41.17;;;;;;;;;;5100656;28;20250;-83
2022/01/28 03:08:42;;;;;;;217.00;42.63;;;;;;;;;;5106394;28;20246;-83
2022/01/28 03:14:16;;;;;;;258.33;43.00;;;;;;;;;;5064859;28;20207;-83
2022/01/28 03:16:59;;;;;;;154.53;39.03;;;;;;;;;;5101792;28;20196;-83
2022/01/28 03:19:29;;;;;;;219.40;42.37;;;;;;;;;;5093888;28;20194;-83
2022/01/28 03:21:59;;;;;;;198.87;40.40;;;;;;;;;;5108198;28;20198;-83
2022/01/28 03:24:29;;;;;;;143.77;41.20;;;;;;;;;;5082744;28;20279;-83
2022/01/28 03:27:02;;;;;;;182.00;42.20;;;;;;;;;;5111657;28;20279;-83
2022/01/28 03:29:29;;;;;;;304.57;42.93;;;;;;;;;;5110734;28;20217;-82
2022/01/28 03:31:56;;;;;;;341.70;45.07;;;;;;;;;;5111335;28;20669;-83
2022/01/28 03:34:24;;;;;;;138.70;42.50;;;;;;;;;;5110324;28;20333;-83
2022/01/28 03:36:52;;;;;;;310.43;45.33;;;;;;;;;;5111732;28;20191;-83
2022/01/28 03:39:19;;;;;;;186.87;41.40;;;;;;;;;;5111965;28;20201;-83
2022/01/28 03:41:48;;;;;;;255.50;42.33;;;;;;;;;;5111471;28;20190;-83
2022/01/28 03:44:16;;;;;;;221.10;43.57;;;;;;;;;;5099788;28;20230;-83
2022/01/28 03:46:43;;;;;;;296.20;45.13;;;;;;;;;;5106926;28;20254;-83
2022/01/28 03:49:10;;;;;;;292.37;43.87;;;;;;;;;;5113164;28;20256;-83
2022/01/28 03:51:37;;;;;;;259.93;44.90;;;;;;;;;;5106239;28;20361;-82
2022/01/28 03:54:05;;;;;;;113.17;41.97;;;;;;;;;;5123278;27;20316;-83
2022/01/28 03:56:32;;;;;;;132.47;42.47;;;;;;;;;;5131993;27;20201;-83
2022/01/28 03:59:01;;;;;;;148.23;42.07;;;;;;;;;;5118065;27;20235;-83
2022/01/28 04:01:33;;;;;;;208.97;44.63;;;;;;;;;;5135593;27;20300;-82
2022/01/28 04:04:32;;;;;;;223.43;43.03;;;;;;;;;;5123245;27;20202;-83
2022/01/28 04:12:22;;;;;;;428.50;48.53;;;;;;;;;;5122141;27;20260;-82
2022/01/28 04:15:05;;;;;;;251.20;44.83;;;;;;;;;;5135008;27;20193;-82
2022/01/28 04:17:32;;;;;;;396.83;47.20;;;;;;;;;;5094899;27;20275;-83
2022/01/28 04:19:59;;;;;;;293.97;46.67;;;;;;;;;;5119736;27;20632;-82
2022/01/28 04:22:27;;;;;;;107.03;43.17;;;;;;;;;;5115412;27;20276;-82
2022/01/28 04:24:54;;;;;;;151.30;43.60;;;;;;;;;;5128968;27;20277;-82
2022/01/28 04:27:21;;;;;;;198.83;43.67;;;;;;;;;;5129549;27;20201;-82
2022/01/28 04:29:48;;;;;;;146.47;41.67;;;;;;;;;;5135397;27;20665;-83
2022/01/28 04:32:18;;;;;;;98.77;41.03;;;;;;;;;;5124265;27;20278;-82
2022/01/28 04:34:46;;;;;;;262.03;44.00;;;;;;;;;;5122234;27;20208;-83
2022/01/28 04:37:22;;;;;;;107.70;41.67;;;;;;;;;;5135046;27;20237;-82
2022/01/28 04:39:54;;;;;;;193.10;44.03;;;;;;;;;;5127539;27;20200;-82
2022/01/28 04:42:39;;;;;;;200.57;43.67;;;;;;;;;;5148631;27;20303;-82
2022/01/28 04:45:14;;;;;;;115.03;42.37;;;;;;;;;;5116719;27;20198;-83
2022/01/28 04:47:51;;;;;;;103.67;40.77;;;;;;;;;;5126180;27;20302;-82
2022/01/28 04:50:28;;;;;;;108.23;42.43;;;;;;;;;;5117705;27;20635;-83
2022/01/28 04:55:56;;;;;;;177.30;45.30;;;;;;;;;;5119546;27;20727;-82
2022/01/28 04:58:36;;;;;;;317.30;45.30;;;;;;;;;;5093834;28;20212;-82
2022/01/28 05:01:23;;;;;;;415.03;46.33;;;;;;;;;;5074573;28;20234;-83
2022/01/28 05:04:07;;;;;;;183.50;41.67;;;;;;;;;;5108472;27;20198;-83
2022/01/28 05:07:08;;;;;;;378.43;46.83;;;;;;;;;;5114206;28;20198;-83
2022/01/28 05:24:07;;;;;;;119.73;42.20;;;;;;;;;;5077542;28;20206;-83
2022/01/28 05:26:36;;;;;;;208.07;44.20;;;;;;;;;;5070696;28;20199;-83
2022/01/28 05:29:03;;;;;;;154.37;42.57;;;;;;;;;;5083673;28;20218;-83
2022/01/28 05:31:30;;;;;;;163.70;43.07;;;;;;;;;;5090651;28;20729;-83
2022/01/28 05:33:58;;;;;;;128.03;43.53;;;;;;;;;;5079579;28;20295;-83
2022/01/28 05:36:26;;;;;;;128.07;42.10;;;;;;;;;;5078662;28;20199;-82
2022/01/28 05:38:54;;;;;;;249.03;43.53;;;;;;;;;;5070302;28;20199;-83
2022/01/28 05:41:21;;;;;;;188.57;43.47;;;;;;;;;;5085816;28;20269;-83
2022/01/28 05:43:48;;;;;;;335.17;46.07;;;;;;;;;;5079807;28;20249;-83
2022/01/28 05:46:17;;;;;;;334.70;45.47;;;;;;;;;;5072630;28;20275;-83
2022/01/28 05:48:44;;;;;;;151.93;43.07;;;;;;;;;;5069895;28;20238;-83
2022/01/28 05:51:12;;;;;;;138.70;43.43;;;;;;;;;;5082867;28;20280;-83
2022/01/28 05:53:41;;;;;;;100.80;41.27;;;;;;;;;;5112779;28;20221;-83
2022/01/28 05:56:08;;;;;;;203.40;44.37;;;;;;;;;;5113004;28;20298;-83
2022/01/28 05:58:35;;;;;;;192.33;42.73;;;;;;;;;;5112890;28;20665;-83
2022/01/28 06:01:02;;;;;;;120.83;41.87;;;;;;;;;;5124874;27;20272;-83
2022/01/28 06:03:30;;;;;;;109.73;40.73;;;;;;;;;;5127178;27;20232;-83
2022/01/28 06:05:57;;;;;;;109.20;42.07;;;;;;;;;;5119473;27;20280;-83
2022/01/28 06:08:24;;;;;;;115.70;41.80;;;;;;;;;;5126651;27;20213;-82
2022/01/28 06:10:53;;;;;;;164.97;41.27;;;;;;;;;;5133190;27;20229;-82
2022/01/28 06:13:20;;;;;;;461.40;47.97;;;;;;;;;;5127119;27;20629;-82
2022/01/28 06:15:47;;;;;;;459.97;47.93;;;;;;;;;;5120821;27;20231;-83
2022/01/28 06:18:15;;;;;;;279.17;43.10;;;;;;;;;;5126274;27;20233;-82
2022/01/28 06:20:43;;;;;;;185.33;42.47;;;;;;;;;;5132999;27;20255;-83
2022/01/28 06:23:12;;;;;;;177.37;41.67;;;;;;;;;;5092836;28;20547;-83
2022/01/28 06:25:40;;;;;;;178.40;42.57;;;;;;;;;;5110996;27;20201;-83
2022/01/28 06:28:08;;;;;;;166.47;36.43;;;;;;;;;;5113143;27;20292;-82
2022/01/28 06:30:35;;;;;;;251.97;36.60;;;6.60;99.90;;;;;;5132050;27;20229;-84
2022/01/28 06:33:02;;;;;;;151.17;28.90;;;6.10;99.90;;;;;;5131455;27;20221;-83
2022/01/28 06:35:29;;;;;;;166.07;30.57;;;6.00;99.90;;;;;;5128432;27;20280;-83
2022/01/28 06:37:56;;;;;;;157.67;26.50;;;6.00;99.90;;;;;;5113027;27;20660;-84
2022/01/28 06:40:24;;;;;;;64.33;22.60;;;5.90;99.90;;;;;;5125816;27;20233;-84
2022/01/28 06:42:51;;;;;;;47.27;20.27;;;5.80;99.90;;;;;;5112949;27;20720;-83
2022/01/28 06:45:19;;;;;;;69.67;22.30;;;5.80;99.90;;;;;;5113747;27;20255;-82
2022/01/28 06:47:47;;;;;;;91.60;21.87;;;5.80;99.90;;;;;;5112633;27;20232;-82
2022/01/28 06:50:14;;;;;;;88.20;24.87;;;5.80;99.90;;;;;;5107721;27;20224;-82
2022/01/28 06:52:42;;;;;;;95.27;25.57;;;5.70;99.90;;;;;;5117559;27;20197;-85
2022/01/28 06:55:10;;;;;;;68.57;24.20;;;5.70;99.90;;;;;;5118580;27;20292;-82
2022/01/28 06:57:37;;;;;;;192.17;26.97;;;5.70;99.90;;;;;;5108132;27;20209;-83
2022/01/28 07:00:07;;;;;;;136.33;24.97;;;5.70;99.90;;;;;;5118339;27;20944;-83
2022/01/28 07:02:36;;;;;;;53.73;23.37;;;5.60;99.90;;;;;;5116600;27;20276;-84
2022/01/28 07:05:04;;;;;;;195.27;27.00;;;5.60;99.90;;;;;;5114918;27;20667;-83
2022/01/28 07:07:31;;;;;;;74.63;24.00;;;5.60;99.90;;;;;;5115995;27;20221;-83
2022/01/28 07:09:58;;;;;;;134.33;22.47;;;5.60;99.90;;;;;;5112324;28;20298;-83
2022/01/28 07:12:25;;;;;;;78.87;21.23;;;5.50;99.90;;;;;;5113085;27;20237;-83
2022/01/28 07:14:53;;;;;;;138.00;20.87;;;5.50;99.90;;;;;;5111251;28;20229;-83
2022/01/28 07:17:20;;;;;;;46.03;20.40;;;5.40;99.90;;;;;;5112552;28;20224;-83
2022/01/28 07:19:48;;;;;;;44.63;20.17;;;5.40;99.90;;;;;;5111658;28;20205;-83
2022/01/28 07:22:15;;;;;;;143.57;22.67;;;5.40;99.90;;;;;;5120808;28;20718;-83
2022/01/28 07:24:42;;;;;;;94.67;21.43;;;5.40;99.90;;;;;;5121180;27;20229;-83
2022/01/28 07:27:10;;;;;;;59.07;20.17;;;5.40;99.90;;;;;;5123040;27;20269;-83
2022/01/28 07:29:37;;;;;;;132.80;21.07;;;5.40;99.90;;;;;;5119033;27;20304;-83
2022/01/28 07:32:04;;;;;;;215.27;24.90;;;5.30;99.90;;;;;;5129311;27;20269;-85
2022/01/28 07:34:32;;;;;;;75.67;21.67;;;5.30;99.90;;;;;;5120748;27;20233;-85
2022/01/28 07:37:00;;;;;;;129.97;21.87;;;5.40;99.90;;;;;;5124121;27;20227;-85
2022/01/28 07:39:28;;;;;;;51.70;20.77;;;5.40;99.90;;;;;;5128476;27;20193;-84
2022/01/28 07:41:55;;;;;;;86.43;21.73;;;5.40;99.90;;;;;;5131968;27;20257;-84
2022/01/28 07:44:22;;;;;;;53.03;21.47;;;5.30;99.90;;;;;;5123173;27;21707;-85
2022/01/28 07:46:49;;;;;;;115.73;23.60;;;5.30;99.90;;;;;;5130691;27;20239;-85
2022/01/28 07:49:16;;;;;;;222.57;26.60;;;5.30;99.90;;;;;;5127791;27;20266;-84
2022/01/28 07:51:44;;;;;;;140.53;25.33;;;5.30;99.90;;;;;;5132846;27;20217;-84
2022/01/28 07:54:12;;;;;;;60.43;24.20;;;5.30;99.90;;;;;;5126996;27;20267;-84
2022/01/28 07:56:39;;;;;;;67.83;22.40;;;5.30;99.90;;;;;;5118073;27;20198;-84
2022/01/28 07:59:06;;;;;;;90.60;22.57;;;5.30;99.90;;;;;;5132354;27;20189;-85
2022/01/28 08:01:33;;;;;;;80.17;23.43;;;5.30;99.90;;;;;;5120119;27;20236;-85
2022/01/28 08:04:00;;;;;;;74.80;21.30;;;5.30;99.90;;;;;;5114577;27;20549;-85
2022/01/28 08:06:28;;;;;;;63.87;22.57;;;5.20;99.90;;;;;;5118223;27;20198;-84
2022/01/28 08:08:57;;;;;;;118.43;22.37;;;5.30;99.90;;;;;;5115445;27;20205;-85
2022/01/28 08:11:25;;;;;;;135.37;22.20;;;5.30;99.90;;;;;;5124455;27;20213;-85
2022/01/28 08:13:52;;;;;;;53.60;21.30;;;5.20;99.90;;;;;;5125220;27;20615;-84
2022/01/28 08:16:19;;;;;;;45.90;21.57;;;5.20;99.90;;;;;;5130967;27;20283;-85
2022/01/28 08:18:46;;;;;;;74.87;21.67;;;5.20;99.90;;;;;;5125795;27;20672;-84
2022/01/28 08:21:13;;;;;;;90.53;21.17;;;5.20;99.90;;;;;;5139284;27;20204;-85
2022/01/28 08:23:40;;;;;;;74.50;20.40;;;5.20;99.90;;;;;;5122443;27;20273;-84
2022/01/28 08:26:07;;;;;;;42.43;20.23;;;5.20;99.90;;;;;;5123765;27;20229;-82
2022/01/28 08:28:37;;;;;;;68.10;20.37;;;5.30;99.90;;;;;;5129960;27;20250;-83
2022/01/28 08:31:04;;;;;;;69.90;20.63;;;5.30;99.90;;;;;;5130363;27;20232;-83
2022/01/28 08:33:31;;;;;;;82.33;20.50;;;5.10;99.90;;;;;;5123580;27;20194;-85
2022/01/28 08:35:58;;;;;;;45.40;19.50;;;5.20;99.90;;;;;;5121206;27;20291;-85
2022/01/28 08:38:33;;;;;;;78.83;19.80;;;5.20;99.90;;;;;;5121416;27;20990;-85
2022/01/28 08:40:59;;;;;;;64.77;19.57;;;5.10;99.90;;;;;;5123262;27;20318;-85
2022/01/28 08:43:27;;;;;;;52.47;19.27;;;5.10;99.90;;;;;;5126018;27;20284;-85
2022/01/28 08:45:55;;;;;;;66.73;18.40;;;5.10;99.90;;;;;;5126257;27;20248;-84
2022/01/28 08:48:22;;;;;;;94.83;19.67;;;5.10;99.90;;;;;;5119829;27;20197;-84
2022/01/28 08:50:49;;;;;;;35.10;18.87;;;5.10;99.90;;;;;;5115408;27;20320;-84
2022/01/28 08:53:16;;;;;;;53.97;18.73;;;5.10;99.90;;;;;;5120080;27;20656;-85
2022/01/28 08:55:43;;;;;;;57.73;20.00;;;5.20;99.90;;;;;;5101885;28;20221;-85
2022/01/28 08:58:13;;;;;;;73.07;19.10;;;5.20;99.90;;;;;;5068027;28;20194;-85
2022/01/28 09:00:43;;;;;;;75.37;20.17;;;5.10;99.90;;;;;;5105816;28;20207;-84
2022/01/28 09:03:12;;;;;;;61.70;18.77;;;5.10;99.90;;;;;;5099025;28;20285;-85
2022/01/28 09:05:39;;;;;;;68.83;18.40;;;5.10;99.90;;;;;;5106607;28;20713;-85
2022/01/28 09:08:08;;;;;;;52.70;18.53;;;5.10;99.90;;;;;;5103202;28;20251;-85
2022/01/28 09:10:37;;;;;;;54.33;18.30;;;5.10;99.90;;;;;;5105057;28;20588;-85
2022/01/28 09:15:46;;;;;;;77.70;17.23;;;5.10;99.90;;;;;;5089997;28;20201;-85
2022/01/28 09:18:15;;;;;;;57.03;16.70;;;5.10;99.90;;;;;;5100816;28;20218;-84
2022/01/28 09:20:42;;;;;;;42.43;16.90;;;5.00;99.90;;;;;;5100629;28;20243;-86
2022/01/28 09:23:09;;;;;;;67.37;16.60;;;5.00;99.90;;;;;;5097590;28;20226;-85
2022/01/28 09:25:37;;;;;;;56.27;16.57;;;5.00;99.90;;;;;;5096081;28;20204;-84
2022/01/28 09:28:05;;;;;;;80.60;19.70;;;5.10;99.90;;;;;;5102469;28;20280;-84
2022/01/28 09:30:32;;;;;;;60.47;19.67;;;5.00;99.90;;;;;;5105420;28;20619;-84
2022/01/28 09:33:00;;;;;;;67.20;19.17;;;5.00;99.90;;;;;;5097426;28;20228;-85
2022/01/28 09:35:29;;;;;;;54.37;19.07;;;5.00;99.90;;;;;;5100729;28;20198;-84
2022/01/28 09:37:56;;;;;;;52.60;19.13;;;5.10;99.90;;;;;;5094126;28;20275;-85
2022/01/28 09:40:23;;;;;;;42.17;18.17;;;5.20;99.90;;;;;;5096174;28;20214;-85
2022/01/28 09:42:52;;;;;;;46.63;17.37;;;5.20;99.90;;;;;;5095906;28;20237;-84
2022/01/28 09:45:21;;;;;;;51.03;16.47;;;5.20;99.90;;;;;;5090095;28;20197;-84
2022/01/28 09:47:51;;;;;;;48.07;18.30;;;5.10;99.90;;;;;;5106463;28;20229;-84
2022/01/28 09:50:21;;;;;;;33.97;17.93;;;5.10;99.90;;;;;;5086250;28;20221;-84
2022/01/28 09:52:50;;;;;;;31.43;17.63;;;5.10;99.90;;;;;;5103296;28;20213;-84
2022/01/28 09:55:17;;;;;;;33.47;17.63;;;5.20;99.90;;;;;;5103092;28;20221;-84
2022/01/28 09:57:45;;;;;;;32.83;19.03;;;5.30;99.90;;;;;;5100248;28;20704;-84
2022/01/28 10:00:14;;;;;;;42.73;19.47;;;5.50;99.90;;;;;;5092470;28;20206;-84
2022/01/28 10:02:48;;;;;;;28.03;18.47;;;5.50;99.90;;;;;;5095347;28;20201;-84
2022/01/28 10:05:21;;;;;;;25.17;16.90;;;5.60;99.90;;;;;;5092462;28;20943;-84
2022/01/28 10:08:08;;;;;;;22.73;15.70;;;5.50;99.90;;;;;;5106086;28;20213;-85
2022/01/28 10:10:59;;;;;;;24.27;15.33;;;5.50;99.90;;;;;;5104971;28;20235;-84
2022/01/28 10:13:32;;;;;;;24.90;16.30;;;5.70;99.90;;;;;;5090354;28;20204;-84
2022/01/28 10:16:04;;;;;;;23.67;16.67;;;5.90;99.90;;;;;;5100286;28;20202;-85
2022/01/28 10:18:39;;;;;;;25.90;17.07;;;6.00;99.90;;;;;;5106907;28;20228;-84
2022/01/28 10:21:25;;;;;;;25.93;16.43;;;6.10;99.90;;;;;;5100805;28;20221;-84
2022/01/28 10:24:01;;;;;;;24.77;16.30;;;5.80;99.90;;;;;;5084865;28;20628;-84
2022/01/28 10:26:30;;;;;;;25.13;17.30;;;5.90;99.90;;;;;;5098324;28;20202;-85
2022/01/28 10:28:58;;;;;;;41.13;21.13;;;6.10;99.90;;;;;;5081843;28;20253;-84
2022/01/28 10:31:35;;;;;;;39.90;20.50;;;6.10;99.90;;;;;;5107021;28;20253;-84
2022/01/28 10:34:11;;;;;;;37.67;20.37;;;5.90;99.90;;;;;;5093714;28;20698;-84
2022/01/28 10:36:37;;;;;;;30.97;18.17;;;6.00;99.90;;;;;;5103827;28;20289;-84
2022/01/28 10:39:06;;;;;;;35.83;19.80;;;6.00;99.90;;;;;;5104498;28;20276;-83
2022/01/28 10:41:33;;;;;;;46.80;25.53;;;6.40;99.90;;;;;;5102014;28;20756;-83
2022/01/28 10:44:02;;;;;;;45.60;25.00;;;6.70;99.90;;;;;;5102263;28;20300;-83
2022/01/28 10:46:33;;;;;;;38.23;23.20;;;6.40;99.90;;;;;;5104406;28;20280;-84
2022/01/28 10:49:03;;;;;;;33.40;20.73;;;6.90;99.90;;;;;;5090004;28;20579;-84
2022/01/28 10:51:41;;;;;;;34.07;21.60;;;7.10;99.90;;;;;;5097938;28;20220;-83
2022/01/28 10:54:11;;;;;;;29.07;19.37;;;7.00;99.90;;;;;;5093310;28;20220;-83
2022/01/28 10:56:50;;;;;;;29.23;19.13;;;7.00;99.90;;;;;;5103015;28;20233;-83
2022/01/28 10:59:19;;;;;;;28.87;19.03;;;6.70;99.90;;;;;;5085254;28;20232;-83
2022/01/28 11:01:47;;;;;;;27.47;18.13;;;6.90;99.90;;;;;;5091591;28;20231;-83
2022/01/28 11:04:18;;;;;;;27.00;18.27;;;6.80;99.90;;;;;;5084298;28;20296;-83
2022/01/28 11:06:46;;;;;;;26.37;18.87;;;6.90;99.90;;;;;;5080912;28;20236;-82
2022/01/28 11:09:17;;;;;;;27.43;17.47;;;7.40;99.90;;;;;;5106346;28;21713;-83
2022/01/28 11:11:45;;;;;;;24.97;17.03;;;;;;;;;;5104676;28;20684;-83
2022/01/28 11:14:13;;;;;;;23.93;18.00;;;;;;;;;;5093547;28;20637;-84
2022/01/28 11:16:41;;;;;;;27.40;18.70;;;;;;;;;;5104531;28;20196;-84
2022/01/28 11:19:11;;;;;;;30.00;20.27;;;;;;;;;;5104009;28;20605;-82
2022/01/28 11:21:47;;;;;;;27.50;19.63;;;;;;;;;;5095696;28;20231;-85
2022/01/28 11:24:24;;;;;;;26.93;20.33;;;;;;;;;;5097430;28;20190;-82
2022/01/28 11:26:56;;;;;;;29.27;21.90;;;;;;;;;;5091073;28;20292;-82
2022/01/28 11:29:27;;;;;;;26.27;19.67;;;;;;;;;;5098614;28;20837;-82
2022/01/28 11:31:59;;;;;;;28.33;19.83;;;;;;;;;;5099013;28;20216;-82
2022/01/28 11:34:31;;;;;;;22.87;17.43;;;;;;;;;;5098365;28;20286;-82
2022/01/28 11:37:02;;;;;;;22.03;16.73;;;;;;;;;;5092166;28;20205;-82
2022/01/28 11:39:42;;;;;;;22.80;16.00;;;;;;;;;;5093023;28;20254;-82
2022/01/28 11:42:15;;;;;;;27.20;17.90;;;;;;;;;;5086833;28;20307;-83
2022/01/28 11:44:47;;;;;;;22.93;15.90;;;;;;;;;;5099825;28;20563;-87
2022/01/28 11:47:23;;;;;;;22.47;15.43;;;;;;;;;;5100676;28;20215;-82
2022/01/28 11:49:59;;;;;;;24.13;16.33;;;;;;;;;;5101762;28;20228;-82
2022/01/28 11:52:30;;;;;;;22.80;16.77;;;;;;;;;;5096208;28;20261;-82
2022/01/28 11:55:20;;;;;;;21.20;15.47;;;;;;;;;;5092425;28;20247;-82
2022/01/28 11:57:52;;;;;;;20.43;14.37;;;;;;;;;;5108844;28;20229;-83
2022/01/28 12:00:20;;;;;;;20.53;15.17;;;;;;;;;;5109194;28;20200;-83
2022/01/28 12:02:48;;;;;;;21.27;14.53;;;;;;;;;;5090834;28;20195;-83
2022/01/28 12:05:26;;;;;;;21.70;14.57;;;;;;;;;;5095215;28;20208;-83
2022/01/28 12:07:54;;;;;;;20.83;14.37;;;;;;;;;;5090753;28;20233;-83
2022/01/28 12:10:24;;;;;;;20.40;14.33;;;;;;;;;;5096982;28;20207;-83
2022/01/28 12:12:59;;;;;;;22.90;15.60;;;;;;;;;;5098084;28;20201;-81
2022/01/28 12:15:29;;;;;;;20.43;14.77;;;;;;;;;;5096042;28;20209;-82
2022/01/28 12:18:06;;;;;;;18.50;13.37;;;;;;;;;;5107264;28;20201;-82
2022/01/28 12:20:44;;;;;;;18.57;12.97;;;;;;;;;;5080240;28;20285;-83
2022/01/28 12:23:35;;;;;;;17.33;13.17;;;;;;;;;;5093178;28;20706;-82
2022/01/28 12:26:04;;;;;;;17.53;12.53;;;;;;;;;;5089187;28;20296;-82
2022/01/28 12:28:48;;;;;;;19.50;13.53;;;;;;;;;;5103526;28;20233;-82
2022/01/28 12:31:25;;;;;;;16.97;12.63;;;;;;;;;;5087692;28;20301;-82
2022/01/28 12:33:53;;;;;;;19.10;13.13;;;;;;;;;;5093715;28;20199;-83
2022/01/28 12:36:22;;;;;;;17.77;12.67;;;;;;;;;;5092869;28;20707;-82
2022/01/28 12:39:08;;;;;;;20.50;13.83;;;;;;;;;;5091245;28;20193;-82
2022/01/28 12:41:49;;;;;;;23.40;13.57;;;;;;;;;;5091528;28;20267;-82
2022/01/28 12:44:16;;;;;;;19.17;14.30;;;;;;;;;;5089097;28;20201;-83
2022/01/28 12:46:47;;;;;;;19.27;13.60;;;;;;;;;;5090603;28;20293;-82
2022/01/28 12:49:14;;;;;;;16.93;12.87;;;;;;;;;;5106761;27;20764;-83
2022/01/28 12:51:41;;;;;;;17.97;12.90;;;;;;;;;;5100913;28;20249;-82
2022/01/28 12:54:09;;;;;;;18.00;12.90;;;;;;;;;;5099728;28;20747;-83
2022/01/28 12:56:40;;;;;;;17.70;12.77;;;;;;;;;;5102768;28;20237;-84
2022/01/28 12:59:10;;;;;;;18.57;13.17;;;;;;;;;;5104811;28;20197;-85
2022/01/28 13:01:38;;;;;;;17.67;12.90;;;;;;;;;;5094906;28;20198;-84
2022/01/28 13:04:09;;;;;;;19.47;13.67;;;;;;;;;;5096514;28;20282;-84
2022/01/28 13:08:24;;;;;;;16.03;12.07;;;;;;;;;;5097441;28;20665;-84
2022/01/28 13:09:49;;;;;;;17.83;13.03;;;;;;;;;;5097376;28;20567;-84
2022/01/28 13:12:24;;;;;;;17.37;12.60;;;;;;;;;;5107577;28;20222;-84
2022/01/28 13:14:52;;;;;;;17.73;12.80;;;;;;;;;;5104173;28;20669;-84
2022/01/28 13:17:20;;;;;;;17.83;12.97;;;;;;;;;;5104561;28;20232;-83
2022/01/28 13:19:54;;;;;;;17.07;12.33;;;;;;;;;;5104205;28;20204;-84
2022/01/28 13:22:23;;;;;;;18.23;13.00;;;;;;;;;;5097768;28;20298;-84
2022/01/28 13:24:52;;;;;;;16.17;12.13;;;;;;;;;;5102733;28;20277;-84
2022/01/28 13:27:19;;;;;;;14.60;11.50;;;;;;;;;;5108593;28;20197;-84
2022/01/28 13:29:51;;;;;;;13.13;10.13;;;;;;;;;;5103332;28;20330;-84
2022/01/28 13:32:19;;;;;;;13.80;10.77;;;;;;;;;;5106439;28;20218;-83
2022/01/28 13:34:49;;;;;;;13.00;10.30;;;;;;;;;;5102249;28;20275;-84
2022/01/28 13:37:33;;;;;;;13.03;10.47;;;;;;;;;;5107640;28;20271;-84
2022/01/28 13:40:00;;;;;;;14.30;10.77;;;;;;;;;;5103925;28;20284;-83
2022/01/28 13:42:27;;;;;;;13.50;10.50;;;;;;;;;;5104840;28;20300;-83
2022/01/28 13:44:58;;;;;;;15.03;10.37;;;;;;;;;;5106243;28;20195;-84
2022/01/28 13:47:26;;;;;;;14.43;10.83;;;;;;;;;;5098763;28;20212;-83
2022/01/28 13:49:58;;;;;;;14.23;10.37;;;;;;;;;;5095859;28;20711;-83
2022/01/28 13:52:40;;;;;;;12.90;10.27;;;;;;;;;;5104818;28;20731;-83
2022/01/28 13:55:23;;;;;;;13.53;10.17;;;;;;;;;;5110601;27;20728;-84
2022/01/28 13:57:50;;;;;;;14.67;10.83;;;;;;;;;;5127081;27;20225;-84
2022/01/28 14:00:19;;;;;;;13.83;10.97;;;;;;;;;;5123637;27;20229;-82
2022/01/28 14:02:46;;;;;;;14.73;10.17;;;;;;;;;;5113520;27;20265;-82
2022/01/28 14:05:13;;;;;;;13.17;11.10;;;;;;;;;;5115384;27;20320;-82
2022/01/28 14:07:53;;;;;;;12.70;10.70;;;;;;;;;;5121201;27;20230;-82
2022/01/28 14:10:20;;;;;;;14.77;11.77;;;;;;;;;;5126223;27;20210;-82
2022/01/28 14:12:52;;;;;;;16.00;11.90;;;;;;;;;;5123810;27;20300;-83
2022/01/28 14:15:28;;;;;;;16.17;12.10;;;;;;;;;;5117347;27;20209;-82
2022/01/28 14:17:55;;;;;;;15.47;12.77;;;;;;;;;;5121036;27;20200;-82
2022/01/28 14:20:23;;;;;;;15.83;12.40;;;;;;;;;;5114083;27;20233;-83
2022/01/28 14:22:50;;;;;;;17.03;12.30;;;;;;;;;;5113354;27;20190;-83
2022/01/28 14:25:17;;;;;;;15.20;11.70;;;;;;;;;;5118859;27;20631;-82
2022/01/28 14:28:12;;;;;;;13.73;10.90;;;;;;;;;;5125591;27;20201;-83
2022/01/28 14:30:42;;;;;;;12.50;10.17;;;;;;;;;;5124017;27;20201;-83
2022/01/28 14:33:11;;;;;;;13.37;10.60;;;;;;;;;;5125294;27;20236;-83
2022/01/28 14:35:39;;;;;;;12.40;9.87;;;;;;;;;;5118261;27;20213;-82
2022/01/28 14:38:06;;;;;;;14.00;11.50;;;;;;;;;;5128806;27;20721;-83
2022/01/28 14:40:34;;;;;;;14.00;12.00;;;;;;;;;;5129294;27;20636;-83
2022/01/28 14:43:02;;;;;;;17.63;11.50;;;;;;;;;;5125404;27;20244;-83
2022/01/28 14:45:30;;;;;;;15.67;12.10;;;;;;;;;;5122270;27;20225;-84
2022/01/28 14:47:58;;;;;;;14.67;11.10;;;;;;;;;;5131524;27;20193;-83
2022/01/28 14:50:28;;;;;;;14.73;10.83;;;;;;;;;;5114596;27;20225;-84
2022/01/28 14:52:55;;;;;;;15.10;10.87;;;;;;;;;;5117633;27;20217;-84